KTNU/TNU METAR and TAF weather

Enter ICAO airport designator
Station Type Date Time Source
KTNU METAR 2020/09/24 11:35 UTC NOAA

KTNU 241135Z AUTO 20005KT 8SM BKN042 15/15 A2988 RMK A01


Station Type Date Time Source
KTNU Decoded METAR 2020/09/24 11:35 UTC NOAA

Newton Municipal, IA, United States (KTNU) 41-41N 093-01W
Sep 24, 2020 - 07:35 AM EDT / 2020.09.24 1135 UTC
Wind: from the SSW (200 degrees) at 6 MPH (5 KT):0
Visibility: 8 mile(s):0
Sky conditions: mostly cloudy
Temperature: 59 F (15 C)
Dew Point: 59 F (15 C)
Relative Humidity: 100%
Pressure (altimeter): 29.88 in. Hg (1011 hPa)
ob: KTNU 241135Z AUTO 20005KT 8SM BKN042 15/15 A2988 RMK A01
cycle: 11

Station Type Date Time Source
KTNU TAF UTC NOAA

Error!

Example: see airport list